sensor_id;sensor_type;location;lat;lon;timestamp;temperature;humidity
29345;DHT22;16339;48.748;2.222;2022-08-24T00:00:21;24.40;64.50
29345;DHT22;16339;48.748;2.222;2022-08-24T00:02:50;24.50;64.40
29345;DHT22;16339;48.748;2.222;2022-08-24T00:05:22;24.50;64.40
29345;DHT22;16339;48.748;2.222;2022-08-24T00:07:51;24.50;64.40
29345;DHT22;16339;48.748;2.222;2022-08-24T00:10:20;24.50;64.50
29345;DHT22;16339;48.748;2.222;2022-08-24T00:12:48;24.50;64.30
29345;DHT22;16339;48.748;2.222;2022-08-24T00:15:17;24.50;64.30
29345;DHT22;16339;48.748;2.222;2022-08-24T00:17:46;24.50;64.20
29345;DHT22;16339;48.748;2.222;2022-08-24T00:20:16;24.50;64.10
29345;DHT22;16339;48.748;2.222;2022-08-24T00:22:47;24.50;64.20
29345;DHT22;16339;48.748;2.222;2022-08-24T00:25:16;24.60;64.10
29345;DHT22;16339;48.748;2.222;2022-08-24T00:27:45;24.60;64.10
29345;DHT22;16339;48.748;2.222;2022-08-24T00:30:17;24.60;64.00
29345;DHT22;16339;48.748;2.222;2022-08-24T00:32:47;24.60;64.00
29345;DHT22;16339;48.748;2.222;2022-08-24T00:35:17;24.50;63.90
29345;DHT22;16339;48.748;2.222;2022-08-24T00:37:50;24.50;63.80
29345;DHT22;16339;48.748;2.222;2022-08-24T00:40:23;24.50;63.90
29345;DHT22;16339;48.748;2.222;2022-08-24T00:42:52;24.50;63.90
29345;DHT22;16339;48.748;2.222;2022-08-24T00:45:21;24.50;63.80
29345;DHT22;16339;48.748;2.222;2022-08-24T00:47:53;24.50;63.70
29345;DHT22;16339;48.748;2.222;2022-08-24T00:50:26;24.40;63.60
29345;DHT22;16339;48.748;2.222;2022-08-24T00:53:05;24.50;63.50
29345;DHT22;16339;48.748;2.222;2022-08-24T00:55:38;24.50;63.40
29345;DHT22;16339;48.748;2.222;2022-08-24T00:58:16;24.50;63.50
29345;DHT22;16339;48.748;2.222;2022-08-24T01:00:48;24.50;63.50
29345;DHT22;16339;48.748;2.222;2022-08-24T01:03:18;24.50;63.30
29345;DHT22;16339;48.748;2.222;2022-08-24T01:05:47;24.40;63.20
29345;DHT22;16339;48.748;2.222;2022-08-24T01:08:19;24.40;63.30
29345;DHT22;16339;48.748;2.222;2022-08-24T01:10:51;24.40;63.50
29345;DHT22;16339;48.748;2.222;2022-08-24T01:13:21;24.40;63.50
29345;DHT22;16339;48.748;2.222;2022-08-24T01:15:52;24.40;63.50
29345;DHT22;16339;48.748;2.222;2022-08-24T01:18:23;24.40;63.70
29345;DHT22;16339;48.748;2.222;2022-08-24T01:21:10;24.30;63.60
29345;DHT22;16339;48.748;2.222;2022-08-24T01:23:45;24.30;63.80
29345;DHT22;16339;48.748;2.222;2022-08-24T01:26:16;24.30;63.80
29345;DHT22;16339;48.748;2.222;2022-08-24T01:28:51;24.30;63.90
29345;DHT22;16339;48.748;2.222;2022-08-24T01:31:24;24.30;63.80
29345;DHT22;16339;48.748;2.222;2022-08-24T01:33:53;24.30;63.80
29345;DHT22;16339;48.748;2.222;2022-08-24T01:36:28;24.40;63.50
29345;DHT22;16339;48.748;2.222;2022-08-24T01:39:03;24.30;63.40
29345;DHT22;16339;48.748;2.222;2022-08-24T01:41:33;24.30;63.60
29345;DHT22;16339;48.748;2.222;2022-08-24T01:44:03;24.30;63.70
29345;DHT22;16339;48.748;2.222;2022-08-24T01:46:31;24.30;63.70
29345;DHT22;16339;48.748;2.222;2022-08-24T01:49:00;24.30;63.50
29345;DHT22;16339;48.748;2.222;2022-08-24T01:51:30;24.30;63.50
29345;DHT22;16339;48.748;2.222;2022-08-24T01:54:03;24.30;63.50
29345;DHT22;16339;48.748;2.222;2022-08-24T01:56:32;24.30;63.40
29345;DHT22;16339;48.748;2.222;2022-08-24T01:59:02;24.30;63.30
29345;DHT22;16339;48.748;2.222;2022-08-24T02:01:35;24.20;63.20
29345;DHT22;16339;48.748;2.222;2022-08-24T02:04:06;24.20;63.30
29345;DHT22;16339;48.748;2.222;2022-08-24T02:06:36;24.20;63.40
29345;DHT22;16339;48.748;2.222;2022-08-24T02:09:07;24.20;63.60
29345;DHT22;16339;48.748;2.222;2022-08-24T02:11:36;24.20;63.70
29345;DHT22;16339;48.748;2.222;2022-08-24T02:14:06;24.20;63.70
29345;DHT22;16339;48.748;2.222;2022-08-24T02:16:35;24.10;63.40
29345;DHT22;16339;48.748;2.222;2022-08-24T02:19:04;24.10;63.40
29345;DHT22;16339;48.748;2.222;2022-08-24T02:21:33;24.10;63.40
29345;DHT22;16339;48.748;2.222;2022-08-24T02:24:02;24.10;63.40
29345;DHT22;16339;48.748;2.222;2022-08-24T02:26:34;24.10;63.50
29345;DHT22;16339;48.748;2.222;2022-08-24T02:29:03;24.00;63.40
29345;DHT22;16339;48.748;2.222;2022-08-24T02:31:32;24.00;63.20
29345;DHT22;16339;48.748;2.222;2022-08-24T02:34:01;24.00;63.40
29345;DHT22;16339;48.748;2.222;2022-08-24T02:36:30;24.00;63.50
29345;DHT22;16339;48.748;2.222;2022-08-24T02:38:59;24.00;63.50
29345;DHT22;16339;48.748;2.222;2022-08-24T02:41:28;24.00;63.60
29345;DHT22;16339;48.748;2.222;2022-08-24T02:44:02;24.00;63.40
29345;DHT22;16339;48.748;2.222;2022-08-24T02:46:31;24.00;63.20
29345;DHT22;16339;48.748;2.222;2022-08-24T02:49:00;24.00;63.40
29345;DHT22;16339;48.748;2.222;2022-08-24T02:51:30;24.00;63.50
29345;DHT22;16339;48.748;2.222;2022-08-24T02:54:01;23.90;63.50
29345;DHT22;16339;48.748;2.222;2022-08-24T02:56:30;23.90;63.40
29345;DHT22;16339;48.748;2.222;2022-08-24T02:59:01;23.90;63.40
29345;DHT22;16339;48.748;2.222;2022-08-24T03:01:30;23.90;63.60
29345;DHT22;16339;48.748;2.222;2022-08-24T03:03:59;23.90;63.70
29345;DHT22;16339;48.748;2.222;2022-08-24T03:06:27;23.80;63.80
29345;DHT22;16339;48.748;2.222;2022-08-24T03:08:57;23.70;63.80
29345;DHT22;16339;48.748;2.222;2022-08-24T03:11:25;23.70;63.70
29345;DHT22;16339;48.748;2.222;2022-08-24T03:13:54;23.70;64.70
29345;DHT22;16339;48.748;2.222;2022-08-24T03:16:26;23.70;64.20
29345;DHT22;16339;48.748;2.222;2022-08-24T03:18:56;23.70;64.30
29345;DHT22;16339;48.748;2.222;2022-08-24T03:21:25;23.70;65.00
29345;DHT22;16339;48.748;2.222;2022-08-24T03:23:54;23.70;64.30
29345;DHT22;16339;48.748;2.222;2022-08-24T03:26:23;23.60;64.40
29345;DHT22;16339;48.748;2.222;2022-08-24T03:28:52;23.60;64.60
29345;DHT22;16339;48.748;2.222;2022-08-24T03:31:21;23.50;64.90
29345;DHT22;16339;48.748;2.222;2022-08-24T03:33:52;23.50;64.80
29345;DHT22;16339;48.748;2.222;2022-08-24T03:36:21;23.50;64.80
29345;DHT22;16339;48.748;2.222;2022-08-24T03:38:49;23.50;65.00
29345;DHT22;16339;48.748;2.222;2022-08-24T03:41:18;23.50;64.80
29345;DHT22;16339;48.748;2.222;2022-08-24T03:43:47;23.50;65.00
29345;DHT22;16339;48.748;2.222;2022-08-24T03:46:18;23.50;65.10
29345;DHT22;16339;48.748;2.222;2022-08-24T03:48:47;23.50;65.00
29345;DHT22;16339;48.748;2.222;2022-08-24T03:51:21;23.50;65.10
29345;DHT22;16339;48.748;2.222;2022-08-24T03:53:51;23.50;65.00
29345;DHT22;16339;48.748;2.222;2022-08-24T03:56:20;23.50;65.00
29345;DHT22;16339;48.748;2.222;2022-08-24T03:58:51;23.40;65.10
29345;DHT22;16339;48.748;2.222;2022-08-24T04:01:19;23.40;65.00
29345;DHT22;16339;48.748;2.222;2022-08-24T04:03:48;23.40;64.80
29345;DHT22;16339;48.748;2.222;2022-08-24T04:06:21;23.40;64.70
29345;DHT22;16339;48.748;2.222;2022-08-24T04:08:54;23.40;64.70
29345;DHT22;16339;48.748;2.222;2022-08-24T04:11:26;23.40;64.70
29345;DHT22;16339;48.748;2.222;2022-08-24T04:13:56;23.40;65.00
29345;DHT22;16339;48.748;2.222;2022-08-24T04:16:26;23.40;64.90
29345;DHT22;16339;48.748;2.222;2022-08-24T04:18:56;23.40;64.50
29345;DHT22;16339;48.748;2.222;2022-08-24T04:21:29;23.40;64.50
29345;DHT22;16339;48.748;2.222;2022-08-24T04:23:59;23.40;64.80
29345;DHT22;16339;48.748;2.222;2022-08-24T04:26:30;23.30;64.70
29345;DHT22;16339;48.748;2.222;2022-08-24T04:28:59;23.40;64.90
29345;DHT22;16339;48.748;2.222;2022-08-24T04:31:27;23.40;64.60
29345;DHT22;16339;48.748;2.222;2022-08-24T04:33:56;23.40;64.60
29345;DHT22;16339;48.748;2.222;2022-08-24T04:36:28;23.40;64.60
29345;DHT22;16339;48.748;2.222;2022-08-24T04:38:57;23.30;64.60
29345;DHT22;16339;48.748;2.222;2022-08-24T04:41:26;23.30;64.80
29345;DHT22;16339;48.748;2.222;2022-08-24T04:43:55;23.30;65.00
29345;DHT22;16339;48.748;2.222;2022-08-24T04:46:24;23.30;64.90
29345;DHT22;16339;48.748;2.222;2022-08-24T04:48:53;23.30;64.90
29345;DHT22;16339;48.748;2.222;2022-08-24T04:51:22;23.30;64.80
29345;DHT22;16339;48.748;2.222;2022-08-24T04:53:53;23.30;64.80
29345;DHT22;16339;48.748;2.222;2022-08-24T04:56:23;23.30;64.70
29345;DHT22;16339;48.748;2.222;2022-08-24T04:58:53;23.30;64.50
29345;DHT22;16339;48.748;2.222;2022-08-24T05:01:23;23.40;64.50
29345;DHT22;16339;48.748;2.222;2022-08-24T05:03:54;23.40;64.40
29345;DHT22;16339;48.748;2.222;2022-08-24T05:06:27;23.40;64.20
29345;DHT22;16339;48.748;2.222;2022-08-24T05:08:59;23.30;64.20
29345;DHT22;16339;48.748;2.222;2022-08-24T05:11:29;23.30;64.10
29345;DHT22;16339;48.748;2.222;2022-08-24T05:13:58;23.40;64.30
29345;DHT22;16339;48.748;2.222;2022-08-24T05:16:27;23.30;64.60
29345;DHT22;16339;48.748;2.222;2022-08-24T05:18:57;23.30;64.40
29345;DHT22;16339;48.748;2.222;2022-08-24T05:21:27;23.30;64.40
29345;DHT22;16339;48.748;2.222;2022-08-24T05:23:58;23.30;64.50
29345;DHT22;16339;48.748;2.222;2022-08-24T05:26:27;23.30;64.70
29345;DHT22;16339;48.748;2.222;2022-08-24T05:28:58;23.30;64.90
29345;DHT22;16339;48.748;2.222;2022-08-24T05:31:30;23.30;65.00
29345;DHT22;16339;48.748;2.222;2022-08-24T05:34:00;23.30;64.90
29345;DHT22;16339;48.748;2.222;2022-08-24T05:36:32;23.30;65.00
29345;DHT22;16339;48.748;2.222;2022-08-24T05:39:07;23.30;64.90
29345;DHT22;16339;48.748;2.222;2022-08-24T05:41:37;23.30;64.90
29345;DHT22;16339;48.748;2.222;2022-08-24T05:44:09;23.30;65.00
29345;DHT22;16339;48.748;2.222;2022-08-24T05:46:38;23.40;65.00
29345;DHT22;16339;48.748;2.222;2022-08-24T05:49:07;23.40;65.00
29345;DHT22;16339;48.748;2.222;2022-08-24T05:51:36;23.40;65.00
29345;DHT22;16339;48.748;2.222;2022-08-24T05:54:10;23.40;65.00
29345;DHT22;16339;48.748;2.222;2022-08-24T05:56:39;23.50;65.10
29345;DHT22;16339;48.748;2.222;2022-08-24T05:59:08;23.50;65.00
29345;DHT22;16339;48.748;2.222;2022-08-24T06:01:41;23.50;65.00
29345;DHT22;16339;48.748;2.222;2022-08-24T06:04:10;23.60;65.00
29345;DHT22;16339;48.748;2.222;2022-08-24T06:06:39;23.60;65.10
29345;DHT22;16339;48.748;2.222;2022-08-24T06:09:11;23.60;65.10
29345;DHT22;16339;48.748;2.222;2022-08-24T06:11:40;23.60;65.10
29345;DHT22;16339;48.748;2.222;2022-08-24T06:14:11;23.70;65.10
29345;DHT22;16339;48.748;2.222;2022-08-24T06:16:44;23.70;65.10
29345;DHT22;16339;48.748;2.222;2022-08-24T06:19:15;23.80;65.20
29345;DHT22;16339;48.748;2.222;2022-08-24T06:21:46;23.80;65.20
29345;DHT22;16339;48.748;2.222;2022-08-24T06:24:19;23.90;65.20
29345;DHT22;16339;48.748;2.222;2022-08-24T06:27:08;23.90;65.30
29345;DHT22;16339;48.748;2.222;2022-08-24T06:29:47;23.90;65.30
29345;DHT22;16339;48.748;2.222;2022-08-24T06:32:16;23.90;65.50
29345;DHT22;16339;48.748;2.222;2022-08-24T06:34:45;24.00;65.50
29345;DHT22;16339;48.748;2.222;2022-08-24T06:37:14;24.00;65.40
29345;DHT22;16339;48.748;2.222;2022-08-24T06:39:46;24.10;65.50
29345;DHT22;16339;48.748;2.222;2022-08-24T06:42:15;24.10;65.60
29345;DHT22;16339;48.748;2.222;2022-08-24T06:44:43;24.10;65.70
29345;DHT22;16339;48.748;2.222;2022-08-24T06:48:17;24.20;65.90
29345;DHT22;16339;48.748;2.222;2022-08-24T06:57:56;24.40;66.00
29345;DHT22;16339;48.748;2.222;2022-08-24T07:00:27;24.40;66.00
29345;DHT22;16339;48.748;2.222;2022-08-24T07:02:56;24.50;65.90
29345;DHT22;16339;48.748;2.222;2022-08-24T07:05:24;24.60;66.00
29345;DHT22;16339;48.748;2.222;2022-08-24T07:07:53;24.60;66.10
29345;DHT22;16339;48.748;2.222;2022-08-24T07:10:24;24.70;66.30
29345;DHT22;16339;48.748;2.222;2022-08-24T07:12:56;24.70;66.30
29345;DHT22;16339;48.748;2.222;2022-08-24T07:15:26;24.80;66.30
29345;DHT22;16339;48.748;2.222;2022-08-24T07:17:55;24.80;66.30
29345;DHT22;16339;48.748;2.222;2022-08-24T07:20:24;24.90;66.40
29345;DHT22;16339;48.748;2.222;2022-08-24T07:22:52;24.90;66.40
29345;DHT22;16339;48.748;2.222;2022-08-24T07:25:21;24.90;66.40
29345;DHT22;16339;48.748;2.222;2022-08-24T07:27:50;25.10;66.30
29345;DHT22;16339;48.748;2.222;2022-08-24T07:30:21;25.10;65.90
29345;DHT22;16339;48.748;2.222;2022-08-24T07:32:50;25.10;65.60
29345;DHT22;16339;48.748;2.222;2022-08-24T07:35:19;25.20;65.60
29345;DHT22;16339;48.748;2.222;2022-08-24T07:37:48;25.20;65.50
29345;DHT22;16339;48.748;2.222;2022-08-24T07:40:17;25.30;65.10
29345;DHT22;16339;48.748;2.222;2022-08-24T07:42:46;25.30;64.50
29345;DHT22;16339;48.748;2.222;2022-08-24T07:48:57;25.40;63.40
29345;DHT22;16339;48.748;2.222;2022-08-24T07:51:33;25.40;63.00
29345;DHT22;16339;48.748;2.222;2022-08-24T07:54:03;25.50;62.60
29345;DHT22;16339;48.748;2.222;2022-08-24T07:56:32;25.50;62.40
29345;DHT22;16339;48.748;2.222;2022-08-24T07:59:01;25.50;62.70
29345;DHT22;16339;48.748;2.222;2022-08-24T08:01:30;25.60;62.50
29345;DHT22;16339;48.748;2.222;2022-08-24T08:04:02;25.60;62.00
29345;DHT22;16339;48.748;2.222;2022-08-24T08:06:31;25.70;61.90
29345;DHT22;16339;48.748;2.222;2022-08-24T08:08:59;25.70;61.80
29345;DHT22;16339;48.748;2.222;2022-08-24T08:11:30;25.70;61.60
29345;DHT22;16339;48.748;2.222;2022-08-24T08:13:59;25.80;61.40
29345;DHT22;16339;48.748;2.222;2022-08-24T08:16:28;25.90;61.10
29345;DHT22;16339;48.748;2.222;2022-08-24T08:18:57;25.90;60.70
29345;DHT22;16339;48.748;2.222;2022-08-24T08:21:29;25.90;60.30
29345;DHT22;16339;48.748;2.222;2022-08-24T08:24:10;25.90;60.20
29345;DHT22;16339;48.748;2.222;2022-08-24T08:26:47;26.00;60.10
29345;DHT22;16339;48.748;2.222;2022-08-24T08:29:18;26.00;59.90
29345;DHT22;16339;48.748;2.222;2022-08-24T08:31:49;26.00;59.70
29345;DHT22;16339;48.748;2.222;2022-08-24T08:34:17;26.10;59.20
29345;DHT22;16339;48.748;2.222;2022-08-24T08:36:49;26.10;59.00
29345;DHT22;16339;48.748;2.222;2022-08-24T08:39:20;26.10;58.80
29345;DHT22;16339;48.748;2.222;2022-08-24T08:42:11;26.10;58.90
29345;DHT22;16339;48.748;2.222;2022-08-24T08:44:59;26.20;58.90
29345;DHT22;16339;48.748;2.222;2022-08-24T08:47:45;26.20;58.70
29345;DHT22;16339;48.748;2.222;2022-08-24T08:50:20;26.30;58.80
29345;DHT22;16339;48.748;2.222;2022-08-24T08:53:18;26.30;58.20
29345;DHT22;16339;48.748;2.222;2022-08-24T08:56:00;26.30;58.00
29345;DHT22;16339;48.748;2.222;2022-08-24T08:58:44;26.40;57.60
29345;DHT22;16339;48.748;2.222;2022-08-24T09:01:23;26.40;57.60
29345;DHT22;16339;48.748;2.222;2022-08-24T09:04:22;26.40;57.10
29345;DHT22;16339;48.748;2.222;2022-08-24T09:07:06;26.40;56.80
29345;DHT22;16339;48.748;2.222;2022-08-24T09:13:00;26.50;56.40
29345;DHT22;16339;48.748;2.222;2022-08-24T09:15:55;26.50;56.10
29345;DHT22;16339;48.748;2.222;2022-08-24T09:18:36;26.50;55.70
29345;DHT22;16339;48.748;2.222;2022-08-24T09:21:27;26.60;56.10
29345;DHT22;16339;48.748;2.222;2022-08-24T09:24:13;26.60;55.30
29345;DHT22;16339;48.748;2.222;2022-08-24T09:26:55;26.50;55.30
29345;DHT22;16339;48.748;2.222;2022-08-24T09:29:41;26.50;55.50
29345;DHT22;16339;48.748;2.222;2022-08-24T09:32:26;26.60;55.90
29345;DHT22;16339;48.748;2.222;2022-08-24T09:35:00;26.50;55.70
29345;DHT22;16339;48.748;2.222;2022-08-24T09:41:30;26.60;55.60
29345;DHT22;16339;48.748;2.222;2022-08-24T09:44:58;26.70;55.40
29345;DHT22;16339;48.748;2.222;2022-08-24T10:01:40;26.90;54.00
29345;DHT22;16339;48.748;2.222;2022-08-24T10:04:34;26.90;54.20
29345;DHT22;16339;48.748;2.222;2022-08-24T10:11:09;27.00;53.70
29345;DHT22;16339;48.748;2.222;2022-08-24T10:14:52;26.90;53.70
29345;DHT22;16339;48.748;2.222;2022-08-24T10:18:06;26.90;53.90
29345;DHT22;16339;48.748;2.222;2022-08-24T10:28:02;27.00;53.00
29345;DHT22;16339;48.748;2.222;2022-08-24T10:31:17;27.00;52.80
29345;DHT22;16339;48.748;2.222;2022-08-24T10:38:09;27.10;52.90
29345;DHT22;16339;48.748;2.222;2022-08-24T11:00:16;27.70;51.70
29345;DHT22;16339;48.748;2.222;2022-08-24T11:03:03;27.90;51.20
29345;DHT22;16339;48.748;2.222;2022-08-24T11:05:41;27.90;50.80
29345;DHT22;16339;48.748;2.222;2022-08-24T11:08:23;28.00;51.00
29345;DHT22;16339;48.748;2.222;2022-08-24T11:11:23;28.10;50.70
29345;DHT22;16339;48.748;2.222;2022-08-24T11:14:03;28.10;50.30
29345;DHT22;16339;48.748;2.222;2022-08-24T11:16:46;28.20;50.30
29345;DHT22;16339;48.748;2.222;2022-08-24T11:19:34;28.20;50.40
29345;DHT22;16339;48.748;2.222;2022-08-24T11:22:31;28.30;49.80
29345;DHT22;16339;48.748;2.222;2022-08-24T11:25:18;28.30;49.60
29345;DHT22;16339;48.748;2.222;2022-08-24T11:28:03;28.40;49.10
29345;DHT22;16339;48.748;2.222;2022-08-24T11:30:41;28.40;48.80
29345;DHT22;16339;48.748;2.222;2022-08-24T11:33:30;28.40;49.00
29345;DHT22;16339;48.748;2.222;2022-08-24T11:36:15;28.40;49.50
29345;DHT22;16339;48.748;2.222;2022-08-24T11:39:12;28.50;49.50
29345;DHT22;16339;48.748;2.222;2022-08-24T11:41:55;28.60;48.80
29345;DHT22;16339;48.748;2.222;2022-08-24T11:44:42;28.60;49.30
29345;DHT22;16339;48.748;2.222;2022-08-24T11:47:43;28.70;49.30
29345;DHT22;16339;48.748;2.222;2022-08-24T11:50:33;28.80;49.00
29345;DHT22;16339;48.748;2.222;2022-08-24T11:53:23;28.90;48.80
29345;DHT22;16339;48.748;2.222;2022-08-24T11:56:08;28.90;47.30
29345;DHT22;16339;48.748;2.222;2022-08-24T11:58:55;28.90;47.70
29345;DHT22;16339;48.748;2.222;2022-08-24T12:01:39;28.80;48.30
29345;DHT22;16339;48.748;2.222;2022-08-24T12:04:36;28.80;47.80
29345;DHT22;16339;48.748;2.222;2022-08-24T12:07:25;28.70;47.50
29345;DHT22;16339;48.748;2.222;2022-08-24T12:10:15;28.80;47.50
29345;DHT22;16339;48.748;2.222;2022-08-24T12:13:02;28.90;48.00
29345;DHT22;16339;48.748;2.222;2022-08-24T12:15:48;28.90;47.90
29345;DHT22;16339;48.748;2.222;2022-08-24T12:18:32;28.90;47.70
29345;DHT22;16339;48.748;2.222;2022-08-24T12:21:44;29.00;47.60
29345;DHT22;16339;48.748;2.222;2022-08-24T15:19:43;32.50;38.70
29345;DHT22;16339;48.748;2.222;2022-08-24T15:23:12;32.50;38.50
29345;DHT22;16339;48.748;2.222;2022-08-24T15:26:21;32.60;38.70
29345;DHT22;16339;48.748;2.222;2022-08-24T15:29:25;32.70;38.80
29345;DHT22;16339;48.748;2.222;2022-08-24T15:32:37;32.60;39.20
29345;DHT22;16339;48.748;2.222;2022-08-24T15:42:47;32.40;38.20
29345;DHT22;16339;48.748;2.222;2022-08-24T15:46:05;32.50;38.00
29345;DHT22;16339;48.748;2.222;2022-08-24T15:52:41;32.50;38.60
29345;DHT22;16339;48.748;2.222;2022-08-24T15:56:38;32.50;38.30
29345;DHT22;16339;48.748;2.222;2022-08-24T15:59:12;32.30;39.10
29345;DHT22;16339;48.748;2.222;2022-08-24T16:01:53;32.20;39.10
29345;DHT22;16339;48.748;2.222;2022-08-24T16:04:40;32.20;39.60
29345;DHT22;16339;48.748;2.222;2022-08-24T16:07:20;32.20;39.60
29345;DHT22;16339;48.748;2.222;2022-08-24T16:10:00;32.40;39.40
29345;DHT22;16339;48.748;2.222;2022-08-24T16:12:32;32.70;39.00
29345;DHT22;16339;48.748;2.222;2022-08-24T16:15:12;33.00;38.20
29345;DHT22;16339;48.748;2.222;2022-08-24T16:17:44;33.60;37.80
29345;DHT22;16339;48.748;2.222;2022-08-24T16:20:28;34.40;36.20
29345;DHT22;16339;48.748;2.222;2022-08-24T16:23:00;35.60;34.50
29345;DHT22;16339;48.748;2.222;2022-08-24T16:25:31;36.80;34.50
29345;DHT22;16339;48.748;2.222;2022-08-24T16:28:07;37.90;35.20
29345;DHT22;16339;48.748;2.222;2022-08-24T16:30:46;38.90;33.30
29345;DHT22;16339;48.748;2.222;2022-08-24T16:33:43;39.70;30.30
29345;DHT22;16339;48.748;2.222;2022-08-24T16:36:15;40.60;29.80
29345;DHT22;16339;48.748;2.222;2022-08-24T16:38:47;41.40;29.40
29345;DHT22;16339;48.748;2.222;2022-08-24T16:41:18;41.80;27.50
29345;DHT22;16339;48.748;2.222;2022-08-24T16:43:50;42.00;27.40
29345;DHT22;16339;48.748;2.222;2022-08-24T16:46:21;42.40;27.30
29345;DHT22;16339;48.748;2.222;2022-08-24T16:48:50;42.80;27.10
29345;DHT22;16339;48.748;2.222;2022-08-24T16:51:19;43.00;26.90
29345;DHT22;16339;48.748;2.222;2022-08-24T16:53:49;43.30;27.20
29345;DHT22;16339;48.748;2.222;2022-08-24T16:56:18;43.60;26.40
29345;DHT22;16339;48.748;2.222;2022-08-24T16:58:50;43.70;25.90
29345;DHT22;16339;48.748;2.222;2022-08-24T17:01:19;43.80;26.60
29345;DHT22;16339;48.748;2.222;2022-08-24T17:03:48;43.80;27.20
29345;DHT22;16339;48.748;2.222;2022-08-24T17:06:17;43.90;28.00
29345;DHT22;16339;48.748;2.222;2022-08-24T17:08:47;43.90;28.20
29345;DHT22;16339;48.748;2.222;2022-08-24T17:11:16;43.70;28.40
29345;DHT22;16339;48.748;2.222;2022-08-24T17:13:45;43.60;28.40
29345;DHT22;16339;48.748;2.222;2022-08-24T17:16:17;43.40;28.40
29345;DHT22;16339;48.748;2.222;2022-08-24T17:18:46;43.30;28.60
29345;DHT22;16339;48.748;2.222;2022-08-24T17:21:15;43.10;28.70
29345;DHT22;16339;48.748;2.222;2022-08-24T17:23:46;42.90;28.50
29345;DHT22;16339;48.748;2.222;2022-08-24T17:26:16;42.80;28.60
29345;DHT22;16339;48.748;2.222;2022-08-24T17:28:45;42.80;28.90
29345;DHT22;16339;48.748;2.222;2022-08-24T17:31:17;42.70;30.00
29345;DHT22;16339;48.748;2.222;2022-08-24T17:33:46;42.50;30.10
29345;DHT22;16339;48.748;2.222;2022-08-24T17:36:16;42.20;29.90
29345;DHT22;16339;48.748;2.222;2022-08-24T17:38:46;41.80;30.30
29345;DHT22;16339;48.748;2.222;2022-08-24T17:41:16;41.20;31.10
29345;DHT22;16339;48.748;2.222;2022-08-24T17:43:45;40.30;32.20
29345;DHT22;16339;48.748;2.222;2022-08-24T17:46:17;39.30;33.60
29345;DHT22;16339;48.748;2.222;2022-08-24T17:48:46;38.30;34.70
29345;DHT22;16339;48.748;2.222;2022-08-24T17:51:15;37.40;35.60
29345;DHT22;16339;48.748;2.222;2022-08-24T17:53:44;36.50;37.20
29345;DHT22;16339;48.748;2.222;2022-08-24T17:56:13;35.40;38.10
29345;DHT22;16339;48.748;2.222;2022-08-24T17:58:43;34.40;39.40
29345;DHT22;16339;48.748;2.222;2022-08-24T18:01:27;33.80;41.10
29345;DHT22;16339;48.748;2.222;2022-08-24T18:03:56;33.00;41.70
29345;DHT22;16339;48.748;2.222;2022-08-24T18:06:26;32.50;42.50
29345;DHT22;16339;48.748;2.222;2022-08-24T18:08:55;31.90;44.40
29345;DHT22;16339;48.748;2.222;2022-08-24T18:11:27;31.40;43.90
29345;DHT22;16339;48.748;2.222;2022-08-24T18:13:56;31.20;45.20
29345;DHT22;16339;48.748;2.222;2022-08-24T18:16:28;31.00;45.50
29345;DHT22;16339;48.748;2.222;2022-08-24T18:18:57;30.90;45.30
29345;DHT22;16339;48.748;2.222;2022-08-24T18:21:25;30.80;45.60
29345;DHT22;16339;48.748;2.222;2022-08-24T18:23:54;30.60;45.40
29345;DHT22;16339;48.748;2.222;2022-08-24T18:26:25;30.40;45.90
29345;DHT22;16339;48.748;2.222;2022-08-24T18:28:55;30.30;46.20
29345;DHT22;16339;48.748;2.222;2022-08-24T18:31:28;30.20;46.50
29345;DHT22;16339;48.748;2.222;2022-08-24T18:33:57;30.00;46.20
29345;DHT22;16339;48.748;2.222;2022-08-24T18:36:26;29.90;46.80
29345;DHT22;16339;48.748;2.222;2022-08-24T18:38:55;29.60;46.80
29345;DHT22;16339;48.748;2.222;2022-08-24T18:41:31;29.50;47.20
29345;DHT22;16339;48.748;2.222;2022-08-24T18:44:00;29.40;47.60
29345;DHT22;16339;48.748;2.222;2022-08-24T18:46:33;29.30;47.20
29345;DHT22;16339;48.748;2.222;2022-08-24T18:49:02;29.10;47.70
29345;DHT22;16339;48.748;2.222;2022-08-24T18:51:35;29.20;48.00
29345;DHT22;16339;48.748;2.222;2022-08-24T18:54:07;29.10;48.10
29345;DHT22;16339;48.748;2.222;2022-08-24T18:56:37;29.00;48.30
29345;DHT22;16339;48.748;2.222;2022-08-24T18:59:05;29.00;48.40
29345;DHT22;16339;48.748;2.222;2022-08-24T19:01:37;29.00;48.20
29345;DHT22;16339;48.748;2.222;2022-08-24T19:04:19;28.90;48.50
29345;DHT22;16339;48.748;2.222;2022-08-24T19:06:47;28.90;48.40
29345;DHT22;16339;48.748;2.222;2022-08-24T19:09:16;28.90;48.60
29345;DHT22;16339;48.748;2.222;2022-08-24T19:11:45;28.90;48.80
29345;DHT22;16339;48.748;2.222;2022-08-24T19:14:15;28.80;48.30
29345;DHT22;16339;48.748;2.222;2022-08-24T19:16:48;28.80;48.90
29345;DHT22;16339;48.748;2.222;2022-08-24T19:19:17;28.80;48.90
29345;DHT22;16339;48.748;2.222;2022-08-24T19:21:45;28.80;48.80
29345;DHT22;16339;48.748;2.222;2022-08-24T19:24:15;28.80;49.10
29345;DHT22;16339;48.748;2.222;2022-08-24T19:26:45;28.70;49.00
29345;DHT22;16339;48.748;2.222;2022-08-24T19:29:14;28.70;48.80
29345;DHT22;16339;48.748;2.222;2022-08-24T19:31:43;28.50;49.10
29345;DHT22;16339;48.748;2.222;2022-08-24T19:34:15;28.60;49.30
29345;DHT22;16339;48.748;2.222;2022-08-24T19:36:43;28.50;49.00
29345;DHT22;16339;48.748;2.222;2022-08-24T19:39:12;28.50;49.20
29345;DHT22;16339;48.748;2.222;2022-08-24T19:41:44;28.50;49.30
29345;DHT22;16339;48.748;2.222;2022-08-24T19:44:14;28.30;49.40
29345;DHT22;16339;48.748;2.222;2022-08-24T19:46:56;28.40;49.50
29345;DHT22;16339;48.748;2.222;2022-08-24T19:49:27;28.40;49.30
29345;DHT22;16339;48.748;2.222;2022-08-24T19:51:58;28.30;49.30
29345;DHT22;16339;48.748;2.222;2022-08-24T19:54:32;28.40;49.50
29345;DHT22;16339;48.748;2.222;2022-08-24T19:57:03;28.20;49.50
29345;DHT22;16339;48.748;2.222;2022-08-24T19:59:33;28.00;49.70
29345;DHT22;16339;48.748;2.222;2022-08-24T20:02:07;28.00;49.90
29345;DHT22;16339;48.748;2.222;2022-08-24T20:04:39;28.00;50.10
29345;DHT22;16339;48.748;2.222;2022-08-24T20:07:08;28.10;50.10
29345;DHT22;16339;48.748;2.222;2022-08-24T20:09:37;28.10;50.10
29345;DHT22;16339;48.748;2.222;2022-08-24T20:12:06;28.10;49.80
29345;DHT22;16339;48.748;2.222;2022-08-24T20:14:36;28.10;49.80
29345;DHT22;16339;48.748;2.222;2022-08-24T20:17:05;28.00;50.20
29345;DHT22;16339;48.748;2.222;2022-08-24T20:19:40;28.00;50.30
29345;DHT22;16339;48.748;2.222;2022-08-24T20:22:09;28.00;49.70
29345;DHT22;16339;48.748;2.222;2022-08-24T20:24:37;28.00;49.90
29345;DHT22;16339;48.748;2.222;2022-08-24T20:27:07;27.90;50.00
29345;DHT22;16339;48.748;2.222;2022-08-24T20:29:36;27.70;50.40